createdAt,value
2023-05-16T00:01:20.671Z,99493.30
2023-05-16T00:03:51.933Z,99494.30
2023-05-16T00:06:23.264Z,99495.01
2023-05-16T00:08:56.727Z,99496.01
2023-05-16T00:11:28.672Z,99494.46
2023-05-16T00:14:01.640Z,99496.16
2023-05-16T00:16:33.121Z,99494.94
2023-05-16T00:19:05.833Z,99494.22
2023-05-16T00:21:39.934Z,99496.20
2023-05-16T00:24:12.536Z,99494.91
2023-05-16T00:49:19.767Z,99496.81
2023-05-16T00:51:54.710Z,99497.27
2023-05-16T00:54:39.581Z,99502.63
2023-05-16T00:57:11.922Z,99497.42
2023-05-16T00:59:44.157Z,99496.66
2023-05-16T01:02:15.773Z,99494.02
2023-05-16T01:04:48.561Z,99488.60
2023-05-16T01:07:20.220Z,99485.91
2023-05-16T01:09:51.192Z,99490.62
2023-05-16T01:12:37.647Z,99493.07
2023-05-16T01:15:13.927Z,99496.00
2023-05-16T01:17:57.148Z,99501.15
2023-05-16T01:20:38.826Z,99501.08
2023-05-16T01:23:34.998Z,99506.28
2023-05-16T01:26:19.915Z,99506.54
2023-05-16T01:28:52.695Z,99511.58
2023-05-16T01:31:24.847Z,99509.11
2023-05-16T01:33:55.834Z,99511.91
2023-05-16T01:36:31.982Z,99519.12
2023-05-16T01:39:21.901Z,99527.35
2023-05-16T01:42:00.954Z,99530.61
2023-05-16T01:44:36.667Z,99529.77
2023-05-16T01:47:13.776Z,99527.79
2023-05-16T01:49:58.532Z,99527.95
2023-05-16T01:52:33.722Z,99531.23
2023-05-16T01:55:07.938Z,99536.75
2023-05-16T01:57:40.157Z,99537.13
2023-05-16T02:00:13.492Z,99538.70
2023-05-16T02:02:48.206Z,99541.63
2023-05-16T02:05:20.823Z,99539.75
2023-05-16T02:07:52.138Z,99543.31
2023-05-16T02:10:23.344Z,99540.23
2023-05-16T02:12:55.640Z,99535.05
2023-05-16T02:15:27.235Z,99540.64
2023-05-16T02:18:00.070Z,99539.45
2023-05-16T02:20:31.453Z,99539.27
2023-05-16T02:23:03.435Z,99538.90
2023-05-16T02:25:36.445Z,99545.54
2023-05-16T02:28:08.146Z,99547.77
2023-05-16T02:30:39.122Z,99546.90
2023-05-16T02:33:10.242Z,99546.70
2023-05-16T02:35:43.644Z,99545.52
2023-05-16T02:38:34.947Z,99544.48
2023-05-16T02:41:06.133Z,99550.48
2023-05-16T02:43:37.611Z,99552.74
2023-05-16T02:46:23.771Z,99550.85
2023-05-16T02:48:55.804Z,99548.83
2023-05-16T02:51:28.806Z,99546.13
2023-05-16T02:54:01.490Z,99549.05
2023-05-16T02:56:58.108Z,99549.80
2023-05-16T03:03:10.715Z,99562.16
2023-05-16T03:30:29.558Z,99560.43
2023-05-16T03:32:58.877Z,99565.42
2023-05-16T03:35:28.446Z,99563.86
2023-05-16T03:37:57.113Z,99569.97
2023-05-16T03:40:25.537Z,99571.58
2023-05-16T03:42:53.833Z,99571.95
2023-05-16T03:45:22.469Z,99573.81
2023-05-16T03:47:50.952Z,99565.17
2023-05-16T03:50:20.782Z,99569.27
2023-05-16T03:52:49.067Z,99570.54
2023-05-16T03:55:17.621Z,99570.44
2023-05-16T03:57:47.254Z,99572.16
2023-05-16T04:00:18.696Z,99570.52
2023-05-16T04:02:47.110Z,99573.55
2023-05-16T04:05:15.874Z,99572.81
2023-05-16T04:07:44.812Z,99574.14
2023-05-16T04:10:20.029Z,99568.88
2023-05-16T04:12:48.664Z,99569.84
2023-05-16T04:15:16.956Z,99572.91
2023-05-16T04:17:47.293Z,99577.98
2023-05-16T04:20:32.766Z,99578.80
2023-05-16T04:23:04.070Z,99579.96
2023-05-16T04:25:55.293Z,99581.52
2023-05-16T04:32:49.764Z,99577.19
2023-05-16T04:35:23.271Z,99574.08
2023-05-16T04:37:51.909Z,99575.18
2023-05-16T04:40:20.367Z,99571.72
2023-05-16T04:42:49.576Z,99576.10
2023-05-16T04:45:44.908Z,99584.33
2023-05-16T04:48:13.625Z,99585.73
2023-05-16T04:50:53.942Z,99585.30
2023-05-16T04:53:33.339Z,99587.63
2023-05-16T04:56:06.190Z,99589.77
2023-05-16T04:58:34.940Z,99592.91
2023-05-16T05:01:03.486Z,99591.42
2023-05-16T05:03:31.665Z,99587.84
2023-05-16T05:05:59.916Z,99592.85
2023-05-16T05:08:28.140Z,99600.69
2023-05-16T05:10:57.216Z,99601.00
2023-05-16T05:13:25.410Z,99606.27
2023-05-16T05:15:53.800Z,99601.02
2023-05-16T05:18:22.388Z,99602.00
2023-05-16T05:20:52.153Z,99597.74
2023-05-16T05:23:20.957Z,99606.45
2023-05-16T05:25:49.458Z,99602.92
2023-05-16T05:28:17.778Z,99604.70
2023-05-16T05:30:46.234Z,99608.75
2023-05-16T05:33:17.602Z,99608.70
2023-05-16T05:35:45.977Z,99615.29
2023-05-16T05:38:14.392Z,99617.80
2023-05-16T05:45:15.934Z,99627.10
2023-05-16T05:47:45.528Z,99637.88
2023-05-16T05:50:15.341Z,99644.08
2023-05-16T05:52:43.872Z,99641.20
2023-05-16T05:55:12.207Z,99645.08
2023-05-16T05:57:41.114Z,99658.08
2023-05-16T06:00:14.790Z,99669.02
2023-05-16T06:02:43.327Z,99672.34
2023-05-16T06:05:14.422Z,99681.80
2023-05-16T06:07:42.814Z,99686.09
2023-05-16T06:10:11.388Z,99698.95
2023-05-16T06:12:40.589Z,99696.20
2023-05-16T06:15:12.249Z,99696.87
2023-05-16T06:17:41.508Z,99701.56
2023-05-16T06:20:11.899Z,99707.59
2023-05-16T06:22:40.095Z,99721.02
2023-05-16T06:25:10.243Z,99729.92
2023-05-16T06:27:38.460Z,99741.77
2023-05-16T06:30:11.488Z,99741.37
2023-05-16T06:32:42.561Z,99741.81
2023-05-16T06:35:10.963Z,99749.30
2023-05-16T06:37:41.164Z,99754.80
2023-05-16T06:40:12.128Z,99749.80
2023-05-16T06:42:41.275Z,99755.48
2023-05-16T06:45:11.755Z,99762.42
2023-05-16T06:47:40.209Z,99767.77
2023-05-16T06:50:10.787Z,99767.06
2023-05-16T06:52:39.047Z,99767.38
2023-05-16T06:55:08.469Z,99772.86
2023-05-16T06:57:36.734Z,99777.67
2023-05-16T07:00:07.855Z,99780.75
2023-05-16T07:02:39.861Z,99782.48
2023-05-16T07:05:09.524Z,99790.73
2023-05-16T07:07:40.221Z,99792.51
2023-05-16T07:10:13.961Z,99796.98
2023-05-16T07:12:45.665Z,99796.09
2023-05-16T07:15:41.003Z,99803.00
2023-05-16T07:18:09.330Z,99808.32
2023-05-16T07:20:41.978Z,99814.66
2023-05-16T07:23:10.227Z,99817.31
2023-05-16T07:25:38.512Z,99824.21
2023-05-16T07:28:11.172Z,99821.50
2023-05-16T07:30:41.833Z,99828.06
2023-05-16T07:33:10.949Z,99822.65
2023-05-16T07:35:43.148Z,99837.94
2023-05-16T07:38:11.758Z,99838.34
2023-05-16T07:40:40.005Z,99839.96
2023-05-16T07:43:08.230Z,99838.10
2023-05-16T07:45:36.572Z,99844.21
2023-05-16T07:48:05.237Z,99849.23
2023-05-16T07:50:34.329Z,99848.98
2023-05-16T07:53:02.539Z,99853.07
2023-05-16T07:55:35.393Z,99857.21
2023-05-16T07:58:04.441Z,99866.75
2023-05-16T08:00:33.310Z,99868.81
2023-05-16T08:07:30.012Z,99865.66
2023-05-16T08:09:58.220Z,99869.95
2023-05-16T08:12:28.748Z,99873.71
2023-05-16T08:14:59.680Z,99876.52
2023-05-16T08:17:31.096Z,99878.71
2023-05-16T08:20:01.449Z,99883.02
2023-05-16T08:22:30.059Z,99882.14
2023-05-16T08:24:59.948Z,99887.23
2023-05-16T08:27:28.427Z,99886.09
2023-05-16T08:29:57.344Z,99879.92
2023-05-16T08:32:26.312Z,99883.25
2023-05-16T08:34:54.618Z,99883.79
2023-05-16T08:37:23.228Z,99882.25
2023-05-16T08:39:51.782Z,99877.45
2023-05-16T08:42:20.390Z,99877.46
2023-05-16T08:44:50.004Z,99868.71
2023-05-16T08:47:21.094Z,99870.04
2023-05-16T08:49:55.632Z,99878.38
2023-05-16T08:52:30.886Z,99881.23
2023-05-16T08:55:11.449Z,99883.42
2023-05-16T08:58:27.908Z,99879.23
2023-05-16T09:00:56.886Z,99878.73
2023-05-16T09:03:28.507Z,99878.75
2023-05-16T09:05:57.350Z,99883.44
2023-05-16T09:08:49.770Z,99892.33
2023-05-16T09:11:18.709Z,99892.84
2023-05-16T09:13:46.966Z,99892.36
2023-05-16T09:16:17.948Z,99891.33
2023-05-16T09:18:53.383Z,99888.15
2023-05-16T09:21:22.286Z,99889.67
2023-05-16T09:23:50.914Z,99890.25
2023-05-16T09:26:26.070Z,99898.14
2023-05-16T09:28:55.656Z,99897.74
2023-05-16T09:31:26.845Z,99900.88
2023-05-16T09:33:56.845Z,99907.88
2023-05-16T09:36:26.516Z,99918.71
2023-05-16T09:38:57.997Z,99922.27
2023-05-16T09:41:26.239Z,99919.48
2023-05-16T09:43:55.274Z,99926.40
2023-05-16T09:46:27.435Z,99933.86
2023-05-16T09:48:56.389Z,99937.91
2023-05-16T09:51:25.089Z,99944.52
2023-05-16T09:53:54.438Z,99943.95
2023-05-16T09:56:22.748Z,99949.59
2023-05-16T09:58:52.971Z,99954.02
2023-05-16T10:01:21.929Z,99960.40
2023-05-16T10:03:56.084Z,99963.48
2023-05-16T10:06:28.652Z,99973.12
2023-05-16T10:08:57.759Z,99974.57
2023-05-16T10:11:26.689Z,99981.27
2023-05-16T10:13:58.318Z,99981.53
2023-05-16T10:16:27.219Z,99981.29
2023-05-16T10:18:56.847Z,99984.50
2023-05-16T10:21:29.196Z,99990.45
2023-05-16T10:24:01.901Z,99994.64
2023-05-16T10:26:31.518Z,100002.14
2023-05-16T10:29:01.259Z,100003.73
2023-05-16T10:31:30.768Z,100004.54
2023-05-16T10:34:00.029Z,100006.59
2023-05-16T10:36:29.155Z,100009.59
2023-05-16T10:39:01.335Z,100014.99
2023-05-16T10:41:31.126Z,100019.75
2023-05-16T10:44:00.717Z,100021.08
2023-05-16T10:46:35.669Z,100015.70
2023-05-16T10:49:19.271Z,100013.84
2023-05-16T10:52:01.626Z,100014.11
2023-05-16T10:54:36.404Z,100014.06
2023-05-16T10:57:11.650Z,100017.92
2023-05-16T10:59:45.165Z,100018.96
2023-05-16T11:02:27.946Z,100021.98
2023-05-16T11:05:00.229Z,100021.80
2023-05-16T11:07:35.563Z,100017.15
2023-05-16T11:10:06.531Z,100021.00
2023-05-16T11:12:48.485Z,100024.79
2023-05-16T11:15:28.932Z,100034.16
2023-05-16T11:18:08.662Z,100038.23
2023-05-16T11:20:38.114Z,100040.31
2023-05-16T11:23:27.042Z,100040.96
2023-05-16T11:25:59.762Z,100040.72
2023-05-16T11:28:28.484Z,100044.20
2023-05-16T11:30:59.376Z,100044.84
2023-05-16T11:33:33.826Z,100050.05
2023-05-16T11:36:15.326Z,100053.77
2023-05-16T11:38:44.430Z,100056.94
2023-05-16T11:41:14.899Z,100061.80
2023-05-16T11:43:44.999Z,100058.44
2023-05-16T11:46:13.606Z,100057.91
2023-05-16T11:48:43.315Z,100053.75
2023-05-16T11:51:11.770Z,100055.52
2023-05-16T11:53:40.370Z,100056.89
2023-05-16T11:56:09.493Z,100066.29
2023-05-16T11:58:39.220Z,100062.63
2023-05-16T12:01:07.890Z,100060.33
2023-05-16T12:03:36.590Z,100064.19
2023-05-16T12:06:06.013Z,100064.14
2023-05-16T12:08:34.430Z,100069.54
2023-05-16T12:11:02.936Z,100071.62
2023-05-16T12:13:31.515Z,100064.04
2023-05-16T12:15:59.961Z,100063.65
2023-05-16T12:18:28.295Z,100065.85
2023-05-16T12:20:56.649Z,100067.04
2023-05-16T12:23:28.745Z,100066.71
2023-05-16T12:25:57.872Z,100068.45
2023-05-16T12:28:30.348Z,100065.72
2023-05-16T12:30:58.623Z,100067.79
2023-05-16T12:33:27.551Z,100070.30
2023-05-16T12:36:02.147Z,100076.17
2023-05-16T12:38:30.595Z,100078.72
2023-05-16T12:40:59.544Z,100078.33
2023-05-16T12:43:28.094Z,100079.92
2023-05-16T12:45:57.924Z,100079.64
2023-05-16T12:48:35.132Z,100080.53
2023-05-16T12:51:13.516Z,100088.59
2023-05-16T12:53:57.663Z,100092.66
2023-05-16T12:56:30.157Z,100088.05
2023-05-16T12:58:58.412Z,100082.32
2023-05-16T13:01:26.766Z,100082.30
2023-05-16T13:03:55.725Z,100085.03
2023-05-16T13:06:24.361Z,100083.57
2023-05-16T13:08:52.572Z,100080.15
2023-05-16T13:11:20.937Z,100074.50
2023-05-16T13:13:49.298Z,100071.06
2023-05-16T13:16:17.585Z,100071.88
2023-05-16T13:18:45.924Z,100077.13
2023-05-16T13:21:14.549Z,100078.27
2023-05-16T13:23:42.843Z,100079.90
2023-05-16T13:26:11.096Z,100083.51
2023-05-16T13:28:39.460Z,100082.77
2023-05-16T13:31:07.770Z,100083.58
2023-05-16T13:33:37.633Z,100084.77
2023-05-16T13:36:08.998Z,100087.14
2023-05-16T13:38:52.338Z,100081.78
2023-05-16T13:41:21.573Z,100086.27
2023-05-16T13:43:50.217Z,100084.35
2023-05-16T13:46:18.580Z,100085.08
2023-05-16T13:48:47.176Z,100086.03
2023-05-16T13:51:15.540Z,100085.82
2023-05-16T13:53:54.343Z,100084.39
2023-05-16T13:56:22.599Z,100083.60
2023-05-16T13:59:02.193Z,100083.94
2023-05-16T14:01:36.650Z,100085.68
2023-05-16T14:04:05.711Z,100087.49
2023-05-16T14:06:44.271Z,100088.36
2023-05-16T14:09:12.835Z,100090.59
2023-05-16T14:11:42.012Z,100089.61
2023-05-16T14:14:10.911Z,100091.64
2023-05-16T14:16:44.942Z,100090.15
2023-05-16T14:19:15.440Z,100089.84
2023-05-16T14:21:45.363Z,100084.33
2023-05-16T14:24:14.457Z,100080.78
2023-05-16T14:26:48.120Z,100083.33
2023-05-16T14:29:16.459Z,100081.47
2023-05-16T14:31:47.199Z,100088.76
2023-05-16T14:34:15.989Z,100086.30
2023-05-16T14:36:44.753Z,100086.21
2023-05-16T14:39:16.074Z,100085.08
2023-05-16T14:41:44.970Z,100087.73
2023-05-16T14:44:13.209Z,100089.46
2023-05-16T14:46:42.872Z,100087.95
2023-05-16T14:49:11.339Z,100086.27
2023-05-16T14:51:40.267Z,100081.98
2023-05-16T14:54:08.950Z,100082.23
2023-05-16T14:56:37.907Z,100084.71
2023-05-16T14:59:06.536Z,100086.05
2023-05-16T15:01:35.301Z,100087.69
2023-05-16T15:04:04.528Z,100087.59
2023-05-16T15:06:32.909Z,100087.76
2023-05-16T15:09:03.080Z,100087.70
2023-05-16T15:11:31.750Z,100088.41
2023-05-16T15:14:01.039Z,100084.50
2023-05-16T15:16:34.624Z,100080.00
2023-05-16T15:19:12.630Z,100083.40
2023-05-16T15:21:41.117Z,100081.45
2023-05-16T15:24:09.790Z,100081.02
2023-05-16T15:26:39.550Z,100079.66
2023-05-16T15:29:07.829Z,100081.91
2023-05-16T15:31:38.973Z,100078.95
2023-05-16T15:34:08.055Z,100081.48
2023-05-16T15:36:36.405Z,100081.64
2023-05-16T15:39:45.303Z,100082.84
2023-05-16T15:51:52.176Z,100080.73
2023-05-16T16:06:15.689Z,100084.12
2023-05-16T16:08:50.860Z,100079.77
2023-05-16T16:11:58.943Z,100076.45
2023-05-16T16:16:08.297Z,100079.66
2023-05-16T16:44:35.998Z,100066.92
2023-05-16T17:25:25.409Z,100079.82
2023-05-16T17:28:21.518Z,100078.58
2023-05-16T17:30:56.141Z,100087.36
2023-05-16T17:33:31.619Z,100092.72
2023-05-16T17:36:02.703Z,100097.91
2023-05-16T17:39:15.437Z,100100.13
2023-05-16T17:41:46.977Z,100101.77
2023-05-16T17:44:20.931Z,100102.50
2023-05-16T17:47:01.752Z,100106.48
2023-05-16T17:49:51.535Z,100104.77
2023-05-16T17:52:32.918Z,100108.75
2023-05-16T17:55:38.339Z,100105.20
2023-05-16T17:58:15.950Z,100107.89
2023-05-16T18:01:03.472Z,100112.85
2023-05-16T18:03:37.551Z,100119.23
2023-05-16T18:06:09.366Z,100114.25
2023-05-16T18:08:54.231Z,100114.54
2023-05-16T18:11:39.426Z,100118.70
2023-05-16T18:14:27.797Z,100123.46
2023-05-16T18:17:16.187Z,100125.72
2023-05-16T18:20:13.887Z,100126.91
2023-05-16T18:22:51.744Z,100121.52
2023-05-16T18:25:23.895Z,100127.20
2023-05-16T18:27:55.327Z,100125.36
2023-05-16T18:30:31.934Z,100126.33
2023-05-16T18:33:04.119Z,100131.02
2023-05-16T18:35:35.591Z,100130.06
2023-05-16T18:38:09.136Z,100128.35
2023-05-16T18:40:50.491Z,100132.31
2023-05-16T18:43:35.569Z,100133.48
2023-05-16T18:46:06.865Z,100131.14
2023-05-16T18:48:40.180Z,100134.34
2023-05-16T18:51:12.561Z,100130.30
2023-05-16T18:53:43.990Z,100136.57
2023-05-16T18:56:15.985Z,100140.64
2023-05-16T18:58:46.976Z,100141.00
2023-05-16T19:01:22.280Z,100136.44
2023-05-16T19:03:53.560Z,100138.56
2023-05-16T19:06:25.131Z,100134.13
2023-05-16T19:08:56.189Z,100133.21
2023-05-16T19:11:30.517Z,100131.57
2023-05-16T19:14:03.457Z,100131.13
2023-05-16T19:16:34.696Z,100136.17
2023-05-16T19:19:08.264Z,100130.92
2023-05-16T19:21:46.271Z,100132.02
2023-05-16T19:24:17.920Z,100133.30
2023-05-16T19:26:53.422Z,100135.95
2023-05-16T19:29:30.121Z,100135.52
2023-05-16T19:32:21.679Z,100136.96
2023-05-16T19:34:52.772Z,100134.30
2023-05-16T19:37:25.244Z,100136.61
2023-05-16T19:39:56.213Z,100138.94
2023-05-16T19:42:28.580Z,100142.77
2023-05-16T19:45:02.432Z,100144.23
2023-05-16T19:47:36.048Z,100143.44
2023-05-16T19:50:08.777Z,100147.62
2023-05-16T19:52:39.729Z,100146.98
2023-05-16T19:55:12.608Z,100148.45
2023-05-16T19:57:43.740Z,100146.09
2023-05-16T20:00:17.424Z,100145.59
2023-05-16T20:02:50.149Z,100139.98
2023-05-16T20:05:23.428Z,100146.27
2023-05-16T20:07:56.162Z,100150.83
2023-05-16T20:10:27.358Z,100147.77
2023-05-16T20:12:58.359Z,100145.60
2023-05-16T20:15:32.952Z,100147.71
2023-05-16T20:18:04.465Z,100149.02
2023-05-16T20:20:36.170Z,100149.74
2023-05-16T20:23:07.321Z,100153.60
2023-05-16T20:25:38.370Z,100152.65
2023-05-16T20:28:09.318Z,100152.02
2023-05-16T20:30:40.258Z,100151.92
2023-05-16T20:33:13.308Z,100152.98
2023-05-16T20:35:44.540Z,100147.54
2023-05-16T20:38:16.865Z,100148.27
2023-05-16T20:40:48.415Z,100145.92
2023-05-16T20:43:19.597Z,100145.98
2023-05-16T20:45:50.619Z,100148.25
2023-05-16T20:48:22.665Z,100149.86
2023-05-16T20:50:54.722Z,100149.09
2023-05-16T20:53:25.705Z,100151.37
2023-05-16T20:55:57.165Z,100151.27
2023-05-16T20:58:28.139Z,100151.02
2023-05-16T21:00:59.963Z,100155.55
2023-05-16T21:03:31.019Z,100158.20
2023-05-16T21:06:02.161Z,100160.11
2023-05-16T21:08:34.147Z,100156.39
2023-05-16T21:11:05.542Z,100162.10
2023-05-16T21:13:36.547Z,100165.25
2023-05-16T21:16:08.395Z,100162.40
2023-05-16T21:18:39.544Z,100166.89
2023-05-16T21:21:10.828Z,100168.67
2023-05-16T21:23:41.811Z,100164.58
2023-05-16T21:26:12.753Z,100168.27
2023-05-16T21:28:54.509Z,100167.98
2023-05-16T21:31:26.784Z,100166.14
2023-05-16T21:33:57.974Z,100168.23
2023-05-16T21:36:29.819Z,100166.41
2023-05-16T21:39:00.788Z,100165.80
2023-05-16T21:41:31.843Z,100163.45
2023-05-16T21:44:02.783Z,100164.84
2023-05-16T21:46:33.760Z,100164.92
2023-05-16T21:49:04.808Z,100162.92
2023-05-16T21:51:35.811Z,100156.41
2023-05-16T21:54:07.640Z,100158.20
2023-05-16T21:56:39.074Z,100161.70
2023-05-16T21:59:13.928Z,100160.04
2023-05-16T22:01:44.900Z,100157.02
2023-05-16T22:04:16.278Z,100160.89
2023-05-16T22:06:47.332Z,100159.73
2023-05-16T22:09:18.469Z,100158.59
2023-05-16T22:11:49.877Z,100158.65
2023-05-16T22:14:21.370Z,100157.91
2023-05-16T22:16:52.395Z,100157.96
2023-05-16T22:19:57.450Z,100159.59
2023-05-16T22:23:11.443Z,100156.91
2023-05-16T22:26:13.997Z,100163.11
2023-05-16T22:28:58.648Z,100163.65
2023-05-16T22:31:56.675Z,100165.56
2023-05-16T22:34:34.602Z,100169.55
2023-05-16T22:37:07.375Z,100167.73
2023-05-16T22:39:38.688Z,100168.25
2023-05-16T22:42:09.930Z,100170.15
2023-05-16T22:44:40.870Z,100171.42
2023-05-16T22:47:11.861Z,100167.31
2023-05-16T22:49:42.769Z,100170.41
2023-05-16T22:52:13.893Z,100174.05
2023-05-16T22:54:44.847Z,100174.25
2023-05-16T22:57:16.082Z,100174.64
2023-05-16T22:59:47.062Z,100176.36
2023-05-16T23:02:18.059Z,100177.61
2023-05-16T23:04:49.058Z,100174.89
2023-05-16T23:07:20.045Z,100172.52
2023-05-16T23:09:51.041Z,100171.36
2023-05-16T23:12:22.318Z,100170.56
2023-05-16T23:14:53.318Z,100171.14
2023-05-16T23:17:24.481Z,100173.46
2023-05-16T23:19:55.653Z,100169.55
2023-05-16T23:22:26.931Z,100170.30
2023-05-16T23:24:57.898Z,100166.20
2023-05-16T23:27:28.862Z,100164.02
2023-05-16T23:29:59.799Z,100162.35
2023-05-16T23:32:31.224Z,100165.30
2023-05-16T23:35:02.185Z,100165.88
2023-05-16T23:37:33.155Z,100164.60
2023-05-16T23:40:04.181Z,100161.06
2023-05-16T23:42:36.916Z,100160.77
2023-05-16T23:45:10.325Z,100159.64
2023-05-16T23:47:41.425Z,100159.34
2023-05-16T23:50:13.365Z,100159.58
2023-05-16T23:52:44.306Z,100158.77
2023-05-16T23:55:15.960Z,100162.65
2023-05-16T23:57:46.936Z,100158.38
